3ª CORRIDA DO CAFÉ DE MANHUAÇU - MG

Texto

(1)

Coloc. Numero Nome Fx.Et. Cl.Fx. Equipe Ritmo Vel. Tempo 1 13 ALEQUESSANDRO PAULA DA SILVA M3034 - O2 FIT-CHICLETINHO 00:02:59 20,02 00:20:59

2 350 SIDINEI FERNANDES ROSA M3539 - 00:03:01 19,86 00:21:09

3 23 AMAURI RODRIGUES DE OLIVEIRA M4044 - BOLSA ATLETA CTGA 00:03:11 18,88 00:22:15 4 147 GIVANILDO RODRIGUES DE ALMEIDA M4044 - BOACHÁ 00:03:14 18,58 00:22:36

5 325 ROGERIO TOLEDO RODRIGUES M3539 - AMACOOR 00:03:20 18,01 00:23:19

6 189 JOSE MAURO DA COSTA M2024 - MURIAÉ CORRE COMIGO 00:03:23 17,77 00:23:38

7 327 ROMERIO ROCHA DA CRUZ M2529 - BOACHÁ 00:03:29 17,26 00:24:20

8 203 LEANDRO ANTÔNIO GOMES DE SOUZA

M3034 - SUPERMERCADO PAIS E FILHOS DE MANHUAÇU

MG

00:03:29 17,20 00:24:25

9 379 UEMISSON DE CARVALHO OLIVEIRA M3034 - ROCKSPORT 00:03:32 16,96 00:24:46 10 61 CLAUDEIR DE OLIVEIRA SILVA M3539 - ÁGUA SANTA 00:03:35 16,74 00:25:05 11 2 ADAUTO FERREIRA DOS SANTOS M3034 - LUISBURGO 00:03:35 16,72 00:25:07 12 295 PAULO SERGIO FERREIRA M3034 - MARTINS SOARES

RUNNING

00:03:35 16,71 00:25:08 13 378 UELSON JOSÉ DO NASCIMENTO M4044 - MANHUAÇU RUNNING 00:03:38 16,50 00:25:27 14 53 CRISTIANO MATIAS ALVES M3539 - ACADEMIA LIFE CORE 00:03:39 16,46 00:25:31 15 155 GUSTAVO TAVARES OLIVEIRA M3034 - GUSTAVO TAVARES 00:03:39 16,43 00:25:34 16 215 JOÃO PAULO DE MATOS M3034 - HELIO FERREIRA 00:03:39 16,41 00:25:36 17 39 ANTONIO VINICIUS VIEIRA LOPES M2529 - MARTINS SOARES

RUNNING

00:03:40 16,35 00:25:41 18 304 RAFAEL DA SILVA LOPES (RAFAEL DE

JESUS)

M2024 - AMACOOR 00:03:42 16,23 00:25:53

19 114 ESTEVAO DO NASCIMENTO PEREIRA M2529 - COLA 00:03:42 16,22 00:25:54

20 205 LEANDRO JOSÉ DAMÁSIO PEREIRA M3539 - 00:03:43 16,17 00:25:58

21 160 HILTON DOS SANTOS PEREIRA M5054 - AMACORR 00:03:43 16,12 00:26:03 22 239 MARCIANO JOSÉ DA SILVA M3539 - MANHUAÇU RUNNING 00:03:44 16,08 00:26:07 23 333 RONALDO CATHERINGER JUNIOR M2024 - MARTINS SOARES

RUNNING

00:03:45 16,03 00:26:12

24 328 ROMILDO JOSÉ DE SOUZA JUNIOR M2024 - 00:03:45 16,01 00:26:14

25 81 DANILO COSTA DE OLIVEIRA M2529 - 00:03:45 15,99 00:26:16

26 381 VANDERCI ANTONIO MACHADO M4044 - ANACORR 00:03:46 15,94 00:26:21

27 76 CUSTÓDIO GERALDO NETO M2529 - OLIMPUS 00:03:47 15,88 00:26:27

28 204 LEANDRO DA SILVA AMORIM M2529 - NÃO TEM 00:03:51 15,61 00:26:54

29 52 CARLOS ALEXANDRE PERCURANDE M3034 - MANHUAÇU RUNNING 00:03:51 15,58 00:26:57 30 55 CARLOS HENRIQUE DE SOUZA

JÚNIOR

M2024 - AMACORR 00:03:51 15,57 00:26:59

31 376 TIAGO GONÇALVES HUEBRA M3539 - MARTINS SOARES RUNNING

00:03:52 15,54 00:27:02 32 225 MAGNO VINICIUS DE SOUZA DO

CARMO

M3034 - AMACORR 00:03:53 15,48 00:27:08

(2)

33 299 PEDRO HENRIK DE OLIVEIRA VIEIRA M0019 - MARTINS SOARES RUNNING

00:03:53 15,44 00:27:12

34 197 JUVENAL DUTRA DA SILVA M3034 - SEGAUTO 00:03:54 15,36 00:27:21

35 291 ORLANDO TOBIAS TEIXEIRA M4044 - 00:03:55 15,33 00:27:24

36 130 GABRIEL BARROS DE SOUZA VIEIRA M0019 - PIZZARIA DU BATISTA 00:03:55 15,31 00:27:26

37 231 MARCELLO MIRANDA M4549 - 00:03:56 15,26 00:27:31

38 82 WASHINGTON LUIZ MACIEL M3539 - 00:03:57 15,21 00:27:37

39 297 PAULO VITOR AFONSO HUEBRA M2529 - MARTINS SOARES RUNNING

00:03:57 15,20 00:27:38

40 351 SIDNEI DE SALES M4044 - AMACORR 00:03:57 15,16 00:27:42

41 190 JOSÉ RENATO HUEBRA VIEIRA M4549 - MARTINS SOARES RUNNING

00:03:58 15,13 00:27:46 42 308 RAÍ RIBEIRO AUGUSTO DE PAULO M2529 - TEAMFR 00:03:58 15,13 00:27:46

43 28 EDERSON ANTONIO RIBEIRO M3034 - 00:03:58 15,12 00:27:47

44 400 JOZADAQUE ROCHA FERREIRA M2024 - BOACHÁ 00:03:58 15,11 00:27:48

45 331 RONALD FREITAS MAGALHÃES M4549 - ATLETAS ENEGISA 00:03:59 15,09 00:27:50

46 78 JOSÉ LUIS GUIMARÃES M6064 - 00:03:59 15,07 00:27:52

47 68 CLEOMAR FRAIDEWOKS MARTINS M2529 - ENERGISA 00:03:59 15,04 00:27:55

48 15 ALEX LAURINDO M2529 - MARTINS SOARES

RUNNING

00:04:00 14,99 00:28:01

49 271 MATHEUS SINDRA DA SILVA M2024 - 00:04:02 14,87 00:28:15

50 143 GIOVANI SALLES PEREIRA M5054 - AMACORR 00:04:02 14,86 00:28:16

51 296 PAULO SERGIO NOGUEIRA M4549 - 00:04:04 14,78 00:28:25

52 228 MANUEL JORGE GONCALVES M6064 - GARRA TOMBENSE 00:04:04 14,77 00:28:26

53 177 JOÃO PAULO SILVA FREITAS M3539 - 00:04:05 14,70 00:28:34

54 60 CHRYSTIAN GUILHERME SANTANA DE SOUZA

M2529 - AMACORR 00:04:06 14,61 00:28:45

55 182 JORCELINO ANTONIO DA M MARCELINO

M3539 - COLA 00:04:08 14,50 00:28:58

56 274 MAURO LÚCIO CORRÊA DA SILVA JÚNIOR

M2024 - AMACORR 00:04:08 14,49 00:28:59

57 395 WALTER VARGAS JÚNIOR M4549 - AMACORR 00:04:08 14,49 00:28:59

58 133 ANDERSON RODRIGUES SOUZA M2529 - AMACORR 00:04:12 14,27 00:29:26

59 267 MATEUS CUSTODIO DE SOUZA M2529 - 00:04:14 14,15 00:29:41

60 357 SINÉSIO LEITE FILHO M3539 - MARTINS SOARES

RUNNING

00:04:15 14,10 00:29:47

61 348 SÉRGIO TASCA M5054 - ZAGURUMA SPORTS 00:04:15 14,09 00:29:48

62 125 FERNANDO DE ANDRADE M5054 - 00:04:16 14,09 00:29:49

63 195 JULIO CESAR DE SOUZA LOPES M3539 - OTICAS MAYER/ARTUR PERSONAL

00:04:16 14,04 00:29:55

64 389 WALACE VIEIRA GRILLO M2024 - CORRE RAUL 00:04:17 14,00 00:30:00

65 49 BRUNO GOMES DA SILVA M3539 - 211 00:04:17 13,98 00:30:02

(3)

66 122 FELYPE HASTENREITER LEITE RODRIGUES

M3034 - DOMINATO SPORTS 00:04:18 13,97 00:30:04 67 8 ALAN FERREIRA DOS SANTOS M3539 - LUIZ SOUZA 00:04:18 13,94 00:30:08

68 96 EDIMAR RODRIGUES M4044 - 00:04:20 13,85 00:30:19

69 246 MARCUS VINICIUS BAPTISTA M2529 - CLUB FIT STUDIO 00:04:20 13,82 00:30:23 70 370 THAYSON BRUNNER RODRIGUES DA

SILVA

M3034 - ATLETAS ENERGISA 00:04:21 13,81 00:30:25

71 136 GEREMIAS ANTONIO DO CARMO M2529 - 00:04:21 13,79 00:30:27

72 1 ADALMIR ARAUJO CASTRO M4044 - OTICAS MAYER/ARTUR PERSONAL

00:04:21 13,77 00:30:30

73 184 JORGE JUNIOR GOMES DE AGUIAR M2024 - 00:04:22 13,76 00:30:31

74 92 DJALMA RIBEIRO DE CARVALHO M6599 - 00:04:22 13,75 00:30:33

75 377 TIAGO SOTE RIBEIRO M3539 - 00:04:22 13,73 00:30:36

76 224 MAGNO BARBOSA FERREIRA M3539 - 00:04:24 13,66 00:30:45

77 117 FABIO HENRIQUE SANTOS SILVA M0019 - 00:04:24 13,62 00:30:50

78 319 ROBINSON PEREIRA LOPES M2529 - 00:04:25 13,58 00:30:56

79 188 JOSÉ LUIZ FERREIRA DE ALMEIDA M4549 - 00:04:25 13,56 00:30:58

80 218 LUIZ ANTONIO BARBOSA DE OLIVEIRA M5054 - 00:04:26 13,56 00:30:59

81 287 NICOMEDES RODRIGUES DA COSTA M5559 - AMACORR 00:04:26 13,54 00:31:01

82 7 ADRIANO ALBERTO DIAS M3539 - 00:04:26 13,53 00:31:03

83 329 RONALD FELIPE SOARES DA SILVA M2024 - 00:04:28 13,44 00:31:15

84 322 RODRIGO SOUZA PIMENTEL M3539 - IUNA RUNNING 00:04:29 13,39 00:31:22

85 73 TARCISIO GLAUCO DA SILVA M5559 - JAGUÁ 00:04:29 13,36 00:31:26

86 392 WALISSON DE ANDRADE SOUZA M2024 - MANHUAÇU RUNNING 00:04:29 13,36 00:31:26

87 48 BRUNO GODINHO SPÍNOLA M3539 - AMACORR 00:04:30 13,33 00:31:31

88 305 RAFAEL LEANDRO MODESTO M2024 - 00:04:31 13,29 00:31:36

89 102 EDUARDO SATIL ALVES M5054 - MANHUAÇU RUNNING 00:04:31 13,28 00:31:38

90 139 GILMAR DA SILVA M4044 - AMACORR 00:04:34 13,16 00:31:55

91 97 EDIVAN FERNANDES M3539 - OTICAS MAYER/ARTUR

PERSONAL

00:04:34 13,13 00:31:59

92 324 ROGÉRIO DE OLIVEIRA NEVES M5054 - 00:04:34 13,13 00:32:00

93 298 PEDRO CAMPOS TOLEDO M0019 - AVULSO 00:04:35 13,10 00:32:03

94 36 ANTONIO AUGUSTO DE LIMA M4549 - MARTINS SOARES RUNNING

00:04:35 13,08 00:32:07 95 220 JOSÉ ONOFRE DE OLIVEIRA VIEIRA M2529 - MARTINS SOARES

RUNNING

00:04:35 13,08 00:32:07

96 386 VINICIUS GOMES GONÇALVES M4044 - 00:04:36 13,04 00:32:13

97 375 THOMAS ANTONIO SILVA FIOREZE M2529 - CORRE RAUL 00:04:37 13,02 00:32:16 98 158 HÉLIO MARINHO MAGALHÃES M2529 - HÉLIO MAGALHÃES

PERSONAL TRAINER

00:04:38 12,93 00:32:29

99 232 MARCELO ABREU BASTOS M3034 - 00:04:39 12,92 00:32:31

(4)

100 227 MANOEL FERREIRA DE AMORIM JÚNIOR

M2529 - 00:04:39 12,91 00:32:32

101 74 CRISTIANO DE OLIVEIRA CATHERINGER

M3034 - 00:04:39 12,90 00:32:33

102 11 ALEKSANDER OLIVEIRA SANTOS FILHO

M2529 - 00:04:39 12,90 00:32:34

103 176 JOÃO DE MORAIS LISBOA FILHO M6064 - SATIL 00:04:40 12,87 00:32:38 104 208 LEVI BATISTA DE OLIVEIRA M5559 - MANHUAÇU RUNNING 00:04:40 12,85 00:32:41

105 20 JOÃO BATISTA GOMES M4044 - AMACORR 00:04:40 12,84 00:32:42

106 128 FRANK NUNES M4549 - 00:04:41 12,80 00:32:49

107 183 JORGE CIPRIANO DE MACEDO M5054 - AUTÔNOMO 00:04:43 12,73 00:33:00

108 290 ODILON DE SOUZA PINTO M5559 - 00:04:43 12,71 00:33:02

109 317 ROBERTO JUNIOR DE SOUZA M3539 - 00:04:44 12,69 00:33:06

110 272 MATIAS RODRIGUES PIMENTEL M2024 - 00:04:44 12,68 00:33:08

111 157 HELIO DUTRA DUARTE M4044 - 00:04:45 12,65 00:33:12

112 22 AMARILDO FACEROLI M5054 - ENERGIAS MG 00:04:45 12,63 00:33:16

113 174 JETERSON PEREIRA M2024 - 00:04:46 12,59 00:33:22

114 100 EDSON MARRIEL CRISPIM M3539 - MANHUAÇU 00:04:48 12,52 00:33:33

115 269 MATEUS MARTINS DA SILVA M3034 - 00:04:49 12,45 00:33:44

116 191 JOSE ROSSINOL SOBRINHO M6064 - 00:04:49 12,44 00:33:45

117 397 WELINTON DE OLIVEIRA MODESTO M2024 - 00:04:52 12,33 00:34:04

118 294 PAULO BATISTA DE OLIVEIRA M5054 - 00:04:53 12,30 00:34:09

119 396 WELBERT FÁBIO PINTO JUNIOR M2024 - CANELA SECA 00:04:53 12,27 00:34:13

120 131 GABRIEL CESÁRIO BRANDÃO M2024 - 00:04:54 12,23 00:34:20

121 185 JOSÉ BATISTA CICARINI M5054 - AMACOR 00:04:55 12,21 00:34:24

122 394 WALLASON PORTES MOREIRA M3539 - 00:04:57 12,14 00:34:36

123 134 GEOVANE GOMES VICENTE M3034 - JUVENTUDE 00:04:57 12,13 00:34:37

124 105 VALDINEI NARCISO FERREIRA M4044 - 00:04:57 12,12 00:34:39

125 121 FELISMINO ARAUJO DA ROCHA M5559 - AMACORR 00:04:57 12,11 00:34:41 126 270 MATHEUS AUGUSTO SILVEIRA DE

OLIVEIRA

M2024 - 00:04:59 12,03 00:34:55

127 273 MAURICIO COTA M4549 - 00:05:02 11,93 00:35:13

128 326 ROMÁRIO ALMEIDA FAGUNDES M2529 - 00:05:02 11,93 00:35:13

129 388 WAGNER BARBOSA DE SOUZA M3539 - OTICAS MAYER/ARTUR PERSONAL

00:05:02 11,90 00:35:17

130 169 JADSON HUEBRA FARIA HENRIQUE M2529 - 00:05:03 11,90 00:35:18

131 318 ROBERTO LUIZ DAVID M5054 - 00:05:04 11,85 00:35:27

132 156 HARISON SEM SOBRENOME M3539 - 00:05:05 11,82 00:35:32

133 398 WESLEY SERAFIM PIMENTEL M2529 - AMACORR 00:05:05 11,81 00:35:34

134 37 ANTONIO CARLOS FERNANDES M6064 - AMACORR 00:05:06 11,76 00:35:43

(5)

135 363 TAYNAN DE SOUZA HOTT M2529 - MARTINS SOARES RUNNING

00:05:06 11,76 00:35:43

136 45 BRUNO AMARAL ALVES M3539 - 00:05:06 11,75 00:35:44

137 187 JOSÉ CARLOS RANGEL FILHO M3034 - ZAGURUMA 00:05:07 11,72 00:35:50 138 154 GUSTAVO FERREIRA BARBOSA M4044 - OTICAS MAYER/ARTUR

PERSONAL

00:05:08 11,70 00:35:54 139 244 MARCONE BARBOSA FERREIRA M4044 - OTICAS MAYER/ARTUR

PERSONAL

00:05:08 11,70 00:35:54 140 265 MARIOLUCIO DUTRA BRANDAO

MOREIRA

M3539 - 00:05:08 11,70 00:35:54

141 279 MILTON PROBA DOS SANTOS M4044 - 00:05:08 11,69 00:35:56

142 301 PLÍNIO KNUPP BRAGA M2529 - 00:05:08 11,68 00:35:58

143 70 CLEUBER ARANTES M4549 - 00:05:10 11,63 00:36:07

144 286 NEUBER FERREIRA FRANCO JÚNIOR M3539 - ÁGUA SANTA 00:05:10 11,61 00:36:11 145 162 HUMBERTO GONÇALVES DE ASSIS M3034 - OTICAS MAYER/ARTUR

PERSONAL

00:05:12 11,54 00:36:23

146 349 SÉRVULO FRANCKLIN DE OLIVEIRA M5054 - 00:05:14 11,48 00:36:36

147 194 JULIANO DE SOUZA HOTT M3539 - ZAGURUMA 00:05:14 11,46 00:36:38

148 332 RONALDO ARAUJO DE QUEIROZ M3539 - 00:05:14 11,45 00:36:40

149 161 HUGO LIMA FERREIRA M3539 - AMACORR 00:05:18 11,34 00:37:03

150 172 JEFERSON AUGUSTO M2529 - BODY SPORT 00:05:21 11,21 00:37:28

151 345 SAYMON DOS REIS FERNANDES M2024 - 00:05:23 11,13 00:37:44

152 42 ARTHUR ANTUNES GODINHO QUARTO MARTINS

M0019 - 00:05:26 11,06 00:37:59

153 110 EMÍLIO SANTANA DE ABREU M3034 - 00:05:26 11,04 00:38:02

154 181 JONATHAN PIO BOREL M2529 - CLUBFIT 00:05:27 10,99 00:38:12

155 207 LEONARDO ZINE HERINGER LOPES M3034 - 00:05:28 10,98 00:38:15

156 152 GLAUCIO QUARTO MARTINS M4549 - 00:05:29 10,94 00:38:24

157 41 ARILSON CHIABI SIMOES M5559 - 00:05:29 10,93 00:38:26

158 391 WALESON BOREL GOMES M2529 - 00:05:31 10,89 00:38:34

159 233 MARCELO HENRIQUE CARDOSO M4044 - BODY SPORT 00:05:32 10,86 00:38:41

160 323 RODRIGO TADEU VASCONCELOS M4044 - 00:05:36 10,71 00:39:14

161 321 RODRIGO JOSÉ GONZAGA M4044 - MARTINS SOARES

RUNNING

00:05:37 10,69 00:39:17

162 163 IGOR DE SOUZA ROCHA M3034 - CLUBFIT 00:05:38 10,65 00:39:26

163 247 MARELO DE SOUZA M3539 - 00:05:42 10,54 00:39:52

164 54 CARLOS ARTUR SILVA FREITAS M5559 - ARTUR PERSONAL 00:05:43 10,50 00:40:01

165 129 FULVIO PIRES M3034 - BODY SPORT 00:05:45 10,43 00:40:15

166 101 EDUARDO CAMPOS PORTO JUNIOR M4549 - BODY SPORT ACADEMIA 00:05:45 10,43 00:40:16 167 167 ITALO SILVA DE CARVALHO M3034 - ALFA RUNNERS 00:05:47 10,37 00:40:29 168 91 DIMAS DA SILVA COELHO M6064 - MANHUAÇU RUMINNG 00:05:50 10,28 00:40:51

(6)

169 373 THIAGO KNUPP VITOR M3034 - 00:05:51 10,24 00:41:00 170 178 JOAO PEDRO VIEIRA MOURA M2024 - OTICAS MAYER/ARTUR

PERSONAL

00:05:52 10,22 00:41:06 171 219 LUIZ CARLOS DA SILVA M3539 - OTICAS MAYER/ARTUR

PERSONAL

00:05:52 10,22 00:41:06

172 148 GLAUBER MARTINS BARBOSA M4044 - 00:05:55 10,14 00:41:24

173 335 RONAN CARNEIRO COSTA M5054 - 00:05:55 10,14 00:41:24

174 77 DANIEL GERHARD BATISTA M4549 - 00:05:58 10,06 00:41:44

175 12 ALENEWTON DE PAIVA SALAZAR M4044 - 00:05:58 10,05 00:41:48

176 151 GLAUCIO BOREL SATLER M3539 - 00:05:59 10,02 00:41:55

177 344 JAMES M2529 - 00:05:59 10,01 00:41:58

178 275 MAX CAPELLA ARAUJO M4549 - BODY SPORT 00:06:01 9,97 00:42:07

179 343 SAMUEL PAIVA DA SILVA M0019 - 00:06:01 9,97 00:42:08

180 79 DANIEL RODRIGO DE PRADO M4044 - 00:06:03 9,93 00:42:18

181 170 JAIME ESTEVÃO JUNIOR M4044 - BODY SPORT 00:06:06 9,84 00:42:40

182 44 BOB KENNEDY GUTEMBERG SILVA BARROS

M5054 - UNIMED VERTENTE DO CAPARAÓ

00:06:11 9,70 00:43:19 183 5 ADOLFO SILVA ALVES DA SILVEIRA M2529 - ADOLFO 00:06:17 9,55 00:43:58

184 399 YAN FRÓES DA CRUZ COSTA M2529 - 00:06:21 9,46 00:44:24

185 245 MARCUS SATLER ROCHA M4044 - 00:06:22 9,42 00:44:34

186 21 ALTAMIR ALVES TEIXEIRA M6599 - 00:06:24 9,37 00:44:50

187 393 WALLACE MIRANDA M4549 - AMACORR 00:06:37 9,07 00:46:18

188 293 PAULO ARMANDO GARCIA FINOTTI M2529 - AMACOOR 00:06:41 8,99 00:46:44

189 38 ANTONIO LUIS ALVES M6599 - 00:06:42 8,96 00:46:53

190 175 JHUAN HENRIQUE AVELINO SILVA M0019 - 00:06:47 8,84 00:47:32

191 216 LUÍS FERNANDO CARVALHO GOUVÊA M5054 - 00:06:48 8,83 00:47:34

192 120 FABRICIO GANTOS DO AMARAL M5054 - 00:06:50 8,77 00:47:53

193 330 RONALD FILGUEIRAS M4549 - 00:06:51 8,77 00:47:54

194 347 SERGIO RENATO PEREIRA M3539 - AMACORR 00:07:14 8,29 00:50:41

195 334 RONALDO DE SOUZA FERREIRA M4044 - BODYSPORT 00:07:19 8,21 00:51:10

196 16 ALEXANDREMOREIRA ROCHA M4549 - BODYSPORT 00:07:22 8,15 00:51:31

197 371 THIAGO DIAS BARBOSA MOTA M3539 - BODY SPORT 00:07:39 7,85 00:53:30 198 380 VALMIR RIBEIRO SOARES M3034 - OTICAS MAYER/ARTUR

PERSONAL

00:07:51 7,65 00:54:55

199 173 JEFFERSON PAULO DE OLIVEIRA M2529 - 00:07:53 7,61 00:55:10

(7)

Imagem

Referências

temas relacionados :